Diamond Ocean — 3ELG8 — position and weather

sailwx.info

Track history (hours):
 
Tides and Currents Weather Stations Pressure Air Temp Water Temp Dewpoint Dewpoint Depression Visibility Wind Speed Wind Dir Waves Ship Positions

Diamond Ocean

Last reported at 2018-Jun-24 21:38 UTC. Time now 2018-Jun-25 15:21 UTC.
Position N 37°39' E 023°48'.

Length 175 m; draft 9.5 m.

Type: Cargo ship. MMSI: 368747696.

Date/timePositionNaut miles runAvg speedWind from/ knotsBaromVisibWave heightAir tempDewpointWater temp
2018-Jun-24 21:38N 37°39' E 023°48'110.5
2018-Jun-24 21:30N 37°39' E 023°46'510.3
2018-Jun-24 21:00N 37°42' E 023°41'611.2
2018-Jun-24 20:30N 37°47' E 023°37'510.3
2018-Jun-24 20:00N 37°50' E 023°32'611.2
2018-Jun-24 19:30N 37°51' E 023°25'611.2
2018-Jun-24 19:00N 37°52' E 023°18'611.6
2018-Jun-24 18:30N 37°53' E 023°11'611.4
2018-Jun-24 18:00N 37°54' E 023°03'5 6.0
2018-Jun-24 17:10N 37°57' E 022°58'1 4.6
2018-Jun-24 17:00N 37°57' E 022°58'3 5.5
2018-Jun-24 16:30N 37°59' E 022°55'611.6
2018-Jun-24 16:00N 38°02' E 022°49'611.0
2018-Jun-24 15:30N 38°05' E 022°43'  
2018-Jun-21 11:01N 38°08' E 022°37'410.3
2018-Jun-21 10:40N 38°06' E 022°41'210.2
2018-Jun-21 10:28N 38°05' E 022°43'510.3
2018-Jun-21 10:00N 38°02' E 022°48'5 9.6
2018-Jun-21 09:30N 37°60' E 022°53'5 9.3
2018-Jun-21 09:00N 37°57' E 022°58'2 3.7
2018-Jun-21 08:20N 37°55' E 023°00'1 3.1
2018-Jun-21 08:00N 37°55' E 023°01'0 1.0
2018-Jun-21 07:30N 37°54' E 023°02'0 0.5
2018-Jun-21 07:00N 37°54' E 023°02'3 5.8
2018-Jun-21 06:30N 37°53' E 023°05'510.2
2018-Jun-21 06:00N 37°53' E 023°12'510.7
2018-Jun-21 05:30N 37°52' E 023°18'611.0
2018-Jun-21 05:00N 37°51' E 023°25'611.3
2018-Jun-21 04:30N 37°50' E 023°32'5 9.8
2018-Jun-21 04:00N 37°54' E 023°36'3 5.7
2018-Jun-21 03:28N 37°57' E 023°37'0 0.0
2018-Jun-21 02:58N 37°57' E 023°37'0 0.0
2018-Jun-21 02:28N 37°57' E 023°37'0 0.0
2018-Jun-21 01:58N 37°57' E 023°37'0 0.0
2018-Jun-21 01:28N 37°57' E 023°37'0 0.0
2018-Jun-21 00:58N 37°57' E 023°37'0 0.0
2018-Jun-21 00:28N 37°57' E 023°37'0 0.0
2018-Jun-20 23:58N 37°57' E 023°37'0 0.0
2018-Jun-20 23:28N 37°57' E 023°37'0 0.0
2018-Jun-20 22:58N 37°57' E 023°37'0 0.0
2018-Jun-20 22:28N 37°57' E 023°37'0 0.0
2018-Jun-20 21:58N 37°57' E 023°37'0 0.0
2018-Jun-20 21:29N 37°57' E 023°37'0 0.0
2018-Jun-20 20:59N 37°57' E 023°37'0 0.0
2018-Jun-20 20:29N 37°57' E 023°37'0 0.0
2018-Jun-20 19:59N 37°57' E 023°37'0 0.0
2018-Jun-20 19:29N 37°57' E 023°37'0 0.0
2018-Jun-20 18:59N 37°57' E 023°37'0 0.0
2018-Jun-20 18:29N 37°57' E 023°37'0 0.0
2018-Jun-20 17:59N 37°57' E 023°37'0 0.0
2018-Jun-20 17:29N 37°57' E 023°37'0 0.0
2018-Jun-20 16:59N 37°57' E 023°37'0 0.0
2018-Jun-20 16:29N 37°57' E 023°37'0 0.0
2018-Jun-20 15:59N 37°57' E 023°37'0 0.0
2018-Jun-20 15:29N 37°57' E 023°37'0 0.0
2018-Jun-20 14:59N 37°57' E 023°37'0 0.0
2018-Jun-20 14:29N 37°57' E 023°37'0 0.0
2018-Jun-20 13:59N 37°57' E 023°37'0 0.0
2018-Jun-20 13:29N 37°57' E 023°37'0 0.0
2018-Jun-20 12:59N 37°57' E 023°37'0 0.0
2018-Jun-20 12:29N 37°57' E 023°37'0 0.0
2018-Jun-20 11:59N 37°57' E 023°37'0 0.0
2018-Jun-20 11:29N 37°57' E 023°37'0 0.0
2018-Jun-20 10:59N 37°57' E 023°37'0 0.0
2018-Jun-20 10:29N 37°57' E 023°37'0 0.0
2018-Jun-20 09:59N 37°57' E 023°37'0 0.0
2018-Jun-20 09:29N 37°57' E 023°37'0 0.0
2018-Jun-20 08:59N 37°57' E 023°37'0 0.0
2018-Jun-20 08:29N 37°57' E 023°37'0 0.0
2018-Jun-20 07:59N 37°57' E 023°37'0 0.0
2018-Jun-20 07:29N 37°57' E 023°37'0 0.0
2018-Jun-20 06:59N 37°57' E 023°37'0 0.0
2018-Jun-20 06:29N 37°57' E 023°37'0 0.0
2018-Jun-20 05:59N 37°57' E 023°37'0 0.0
2018-Jun-20 05:29N 37°57' E 023°37'0 0.0
2018-Jun-20 04:59N 37°57' E 023°37'0 0.0
2018-Jun-20 04:29N 37°57' E 023°37'0 0.0
2018-Jun-20 03:59N 37°57' E 023°37'0 0.0
2018-Jun-20 03:29N 37°57' E 023°37'0 0.0
2018-Jun-20 02:59N 37°57' E 023°37'0 0.0
2018-Jun-20 02:29N 37°57' E 023°37'0 0.0
2018-Jun-20 01:59N 37°57' E 023°37'0 0.0
2018-Jun-20 01:29N 37°57' E 023°37'0 0.0
2018-Jun-20 00:59N 37°57' E 023°37'0 0.0
2018-Jun-20 00:29N 37°57' E 023°37'0 0.0
2018-Jun-19 23:59N 37°57' E 023°37'0 0.0
2018-Jun-19 23:29N 37°57' E 023°37'0 0.0
2018-Jun-19 22:59N 37°57' E 023°37'0 0.0
2018-Jun-19 22:29N 37°57' E 023°37'0 0.0
2018-Jun-19 21:59N 37°57' E 023°37'0 0.0
2018-Jun-19 21:29N 37°57' E 023°37'0 0.0
2018-Jun-19 20:59N 37°57' E 023°37'0 0.0
2018-Jun-19 20:29N 37°57' E 023°37'0 0.0
2018-Jun-19 19:59N 37°57' E 023°37'0 0.0
2018-Jun-19 19:29N 37°57' E 023°37'0 0.0
2018-Jun-19 18:59N 37°57' E 023°37'0 0.0
2018-Jun-19 18:29N 37°57' E 023°37'0 0.0
2018-Jun-19 17:59N 37°57' E 023°37'0 0.0
2018-Jun-19 17:29N 37°57' E 023°37'0 0.0
2018-Jun-19 16:59N 37°57' E 023°37'0 0.0
2018-Jun-19 16:29N 37°57' E 023°37'0 0.0
2018-Jun-19 15:59N 37°57' E 023°37'0 0.0
2018-Jun-19 15:29N 37°57' E 023°37'0 0.0
2018-Jun-19 14:59N 37°57' E 023°37'0 0.0
2018-Jun-19 14:29N 37°57' E 023°37'0 0.0
2018-Jun-19 13:59N 37°57' E 023°37'0 0.0
2018-Jun-19 13:29N 37°57' E 023°37'0 0.0
2018-Jun-19 12:58N 37°57' E 023°37'0 0.0
2018-Jun-19 12:28N 37°57' E 023°37'0 0.0
2018-Jun-19 11:58N 37°57' E 023°37'0 0.0
2018-Jun-19 11:28N 37°57' E 023°37'0 0.0
2018-Jun-19 10:58N 37°57' E 023°37'0 0.0
2018-Jun-19 10:28N 37°57' E 023°37'0 0.0
2018-Jun-19 09:58N 37°57' E 023°37'0 0.0
2018-Jun-19 09:28N 37°57' E 023°37'0 0.0
2018-Jun-19 08:58N 37°57' E 023°37'0 0.0
2018-Jun-19 08:25N 37°57' E 023°37'0 0.0
2018-Jun-19 07:58N 37°57' E 023°37'0 0.0
2018-Jun-19 07:28N 37°57' E 023°37'0 0.0
2018-Jun-19 06:58N 37°57' E 023°37'0 0.0
2018-Jun-19 06:28N 37°57' E 023°37'0 0.0
2018-Jun-19 05:58N 37°57' E 023°37'0 0.0
2018-Jun-19 05:30N 37°57' E 023°37'0 0.5
2018-Jun-19 05:00N 37°57' E 023°37'2 4.0
2018-Jun-19 04:31N 37°55' E 023°36'0 0.7
2018-Jun-19 04:00N 37°54' E 023°36'1 1.5
2018-Jun-19 03:30N 37°54' E 023°37'3 6.1
2018-Jun-19 03:01N 37°51' E 023°39'3 5.9
2018-Jun-19 02:30N 37°48' E 023°41'3 5.7
2018-Jun-19 02:01N 37°46' E 023°42'3 6.5
2018-Jun-19 01:31N 37°43' E 023°44'4 7.4
2018-Jun-19 01:00N 37°40' E 023°47'  
2018-Jun-16 06:08N 37°38' E 023°48'211.1
2018-Jun-16 05:59N 37°38' E 023°46'510.5
2018-Jun-16 05:30N 37°42' E 023°41'611.4
2018-Jun-16 05:00N 37°47' E 023°38'510.9
2018-Jun-16 04:30N 37°52' E 023°37'5 9.0
2018-Jun-16 04:00N 37°56' E 023°37'0 0.7
2018-Jun-16 03:30N 37°57' E 023°37'0 0.0
2018-Jun-16 03:00N 37°57' E 023°37'0 0.0
2018-Jun-16 02:30N 37°57' E 023°37'0 0.0
2018-Jun-16 02:00N 37°57' E 023°37'0 0.0
2018-Jun-16 01:30N 37°57' E 023°37'0 0.0
2018-Jun-16 01:00N 37°57' E 023°37'0 0.0
2018-Jun-16 00:30N 37°57' E 023°37'0 0.0
2018-Jun-16 00:00N 37°57' E 023°37'0 0.0
2018-Jun-15 23:30N 37°57' E 023°37'0 0.0
2018-Jun-15 23:00N 37°57' E 023°37'0 0.0
2018-Jun-15 22:30N 37°57' E 023°37'0 0.0
2018-Jun-15 21:59N 37°57' E 023°37'0 0.0
2018-Jun-15 21:29N 37°57' E 023°37'0 0.0
2018-Jun-15 20:59N 37°57' E 023°37'0 0.0
2018-Jun-15 20:29N 37°57' E 023°37'0 0.0
2018-Jun-15 19:59N 37°57' E 023°37'0 0.0
2018-Jun-15 19:29N 37°57' E 023°37'0 0.0
2018-Jun-15 18:59N 37°57' E 023°37'0 0.0
2018-Jun-15 18:29N 37°57' E 023°37'0 0.0
2018-Jun-15 17:59N 37°57' E 023°37'0 0.0
2018-Jun-15 17:29N 37°57' E 023°37'0 0.0
2018-Jun-15 16:59N 37°57' E 023°37'0 0.0
2018-Jun-15 16:29N 37°57' E 023°37'0 0.0
2018-Jun-15 15:59N 37°57' E 023°37'0 0.0
2018-Jun-15 15:29N 37°57' E 023°37'0 0.0
2018-Jun-15 14:59N 37°57' E 023°37'0 0.0
2018-Jun-15 14:29N 37°57' E 023°37'0 0.0
2018-Jun-15 13:59N 37°57' E 023°37'0 0.0
2018-Jun-15 13:29N 37°57' E 023°37'0 0.0
2018-Jun-15 12:59N 37°57' E 023°37'0 0.0
2018-Jun-15 12:29N 37°57' E 023°37'0 0.0
2018-Jun-15 11:59N 37°57' E 023°37'0 0.0
2018-Jun-15 11:29N 37°57' E 023°37'0 0.0
2018-Jun-15 10:59N 37°57' E 023°37'0 0.0
2018-Jun-15 10:29N 37°57' E 023°37'0 0.0
2018-Jun-15 09:59N 37°57' E 023°37'0 0.0
2018-Jun-15 09:29N 37°57' E 023°37'0 0.0
2018-Jun-15 08:59N 37°57' E 023°37'0 0.0
2018-Jun-15 08:29N 37°57' E 023°37'0 0.0
2018-Jun-15 07:59N 37°57' E 023°37'0 0.0
2018-Jun-15 07:29N 37°57' E 023°37'0 0.0
2018-Jun-15 06:59N 37°57' E 023°37'0 0.0
2018-Jun-15 06:29N 37°57' E 023°37'0 0.0
2018-Jun-15 05:59N 37°57' E 023°37'0 0.0
2018-Jun-15 05:29N 37°57' E 023°37'0 0.0
2018-Jun-15 04:59N 37°57' E 023°37'0 0.0
2018-Jun-15 04:29N 37°57' E 023°37'0 0.0
2018-Jun-15 03:59N 37°57' E 023°37'0 0.0
2018-Jun-15 03:29N 37°57' E 023°37'0 0.0
2018-Jun-15 02:59N 37°57' E 023°37'0 0.0
2018-Jun-15 02:29N 37°57' E 023°37'0 0.0
2018-Jun-15 01:59N 37°57' E 023°37'0 0.0
2018-Jun-15 01:29N 37°57' E 023°37'0 0.0
2018-Jun-15 00:59N 37°57' E 023°37'0 0.0
2018-Jun-15 00:29N 37°57' E 023°37'0 0.0
2018-Jun-14 23:59N 37°57' E 023°37'0 0.0
2018-Jun-14 23:29N 37°57' E 023°37'0 0.0
2018-Jun-14 22:59N 37°57' E 023°37'0 0.0
2018-Jun-14 22:29N 37°57' E 023°37'0 0.0
2018-Jun-14 21:59N 37°57' E 023°37'  
Track history (hours):
 
Tides and Currents Weather Stations Pressure Air Temp Water Temp Dewpoint Dewpoint Depression Visibility Wind Speed Wind Dir Waves Ship Positions

Diamond Ocean

Last reported at 2018-Jun-24 21:38 UTC. Time now 2018-Jun-25 15:21 UTC.
Position N 37°39' E 023°48'.

Length 175 m; draft 9.5 m.

Type: Cargo ship. MMSI: 368747696.

Date/timePositionNaut miles runAvg speedWind from/ knotsBaromVisibWave heightAir tempDewpointWater temp
2018-Jun-24 21:38N 37°39' E 023°48'110.5
2018-Jun-24 21:30N 37°39' E 023°46'510.3
2018-Jun-24 21:00N 37°42' E 023°41'611.2
2018-Jun-24 20:30N 37°47' E 023°37'510.3
2018-Jun-24 20:00N 37°50' E 023°32'611.2
2018-Jun-24 19:30N 37°51' E 023°25'611.2
2018-Jun-24 19:00N 37°52' E 023°18'611.6
2018-Jun-24 18:30N 37°53' E 023°11'611.4
2018-Jun-24 18:00N 37°54' E 023°03'5 6.0
2018-Jun-24 17:10N 37°57' E 022°58'1 4.6
2018-Jun-24 17:00N 37°57' E 022°58'3 5.5
2018-Jun-24 16:30N 37°59' E 022°55'611.6
2018-Jun-24 16:00N 38°02' E 022°49'611.0
2018-Jun-24 15:30N 38°05' E 022°43'  
2018-Jun-21 11:01N 38°08' E 022°37'410.3
2018-Jun-21 10:40N 38°06' E 022°41'210.2
2018-Jun-21 10:28N 38°05' E 022°43'510.3
2018-Jun-21 10:00N 38°02' E 022°48'5 9.6
2018-Jun-21 09:30N 37°60' E 022°53'5 9.3
2018-Jun-21 09:00N 37°57' E 022°58'2 3.7
2018-Jun-21 08:20N 37°55' E 023°00'1 3.1
2018-Jun-21 08:00N 37°55' E 023°01'0 1.0
2018-Jun-21 07:30N 37°54' E 023°02'0 0.5
2018-Jun-21 07:00N 37°54' E 023°02'3 5.8
2018-Jun-21 06:30N 37°53' E 023°05'510.2
2018-Jun-21 06:00N 37°53' E 023°12'510.7
2018-Jun-21 05:30N 37°52' E 023°18'611.0
2018-Jun-21 05:00N 37°51' E 023°25'611.3
2018-Jun-21 04:30N 37°50' E 023°32'5 9.8
2018-Jun-21 04:00N 37°54' E 023°36'3 5.7
2018-Jun-21 03:28N 37°57' E 023°37'0 0.0
2018-Jun-21 02:58N 37°57' E 023°37'0 0.0
2018-Jun-21 02:28N 37°57' E 023°37'0 0.0
2018-Jun-21 01:58N 37°57' E 023°37'0 0.0
2018-Jun-21 01:28N 37°57' E 023°37'0 0.0
2018-Jun-21 00:58N 37°57' E 023°37'0 0.0
2018-Jun-21 00:28N 37°57' E 023°37'0 0.0
2018-Jun-20 23:58N 37°57' E 023°37'0 0.0
2018-Jun-20 23:28N 37°57' E 023°37'0 0.0
2018-Jun-20 22:58N 37°57' E 023°37'0 0.0
2018-Jun-20 22:28N 37°57' E 023°37'0 0.0
2018-Jun-20 21:58N 37°57' E 023°37'0 0.0
2018-Jun-20 21:29N 37°57' E 023°37'0 0.0
2018-Jun-20 20:59N 37°57' E 023°37'0 0.0
2018-Jun-20 20:29N 37°57' E 023°37'0 0.0
2018-Jun-20 19:59N 37°57' E 023°37'0 0.0
2018-Jun-20 19:29N 37°57' E 023°37'0 0.0
2018-Jun-20 18:59N 37°57' E 023°37'0 0.0
2018-Jun-20 18:29N 37°57' E 023°37'0 0.0
2018-Jun-20 17:59N 37°57' E 023°37'0 0.0
2018-Jun-20 17:29N 37°57' E 023°37'0 0.0
2018-Jun-20 16:59N 37°57' E 023°37'0 0.0
2018-Jun-20 16:29N 37°57' E 023°37'0 0.0
2018-Jun-20 15:59N 37°57' E 023°37'0 0.0
2018-Jun-20 15:29N 37°57' E 023°37'0 0.0
2018-Jun-20 14:59N 37°57' E 023°37'0 0.0
2018-Jun-20 14:29N 37°57' E 023°37'0 0.0
2018-Jun-20 13:59N 37°57' E 023°37'0 0.0
2018-Jun-20 13:29N 37°57' E 023°37'0 0.0
2018-Jun-20 12:59N 37°57' E 023°37'0 0.0
2018-Jun-20 12:29N 37°57' E 023°37'0 0.0
2018-Jun-20 11:59N 37°57' E 023°37'0 0.0
2018-Jun-20 11:29N 37°57' E 023°37'0 0.0
2018-Jun-20 10:59N 37°57' E 023°37'0 0.0
2018-Jun-20 10:29N 37°57' E 023°37'0 0.0
2018-Jun-20 09:59N 37°57' E 023°37'0 0.0
2018-Jun-20 09:29N 37°57' E 023°37'0 0.0
2018-Jun-20 08:59N 37°57' E 023°37'0 0.0
2018-Jun-20 08:29N 37°57' E 023°37'0 0.0
2018-Jun-20 07:59N 37°57' E 023°37'0 0.0
2018-Jun-20 07:29N 37°57' E 023°37'0 0.0
2018-Jun-20 06:59N 37°57' E 023°37'0 0.0
2018-Jun-20 06:29N 37°57' E 023°37'0 0.0
2018-Jun-20 05:59N 37°57' E 023°37'0 0.0
2018-Jun-20 05:29N 37°57' E 023°37'0 0.0
2018-Jun-20 04:59N 37°57' E 023°37'0 0.0
2018-Jun-20 04:29N 37°57' E 023°37'0 0.0
2018-Jun-20 03:59N 37°57' E 023°37'0 0.0
2018-Jun-20 03:29N 37°57' E 023°37'0 0.0
2018-Jun-20 02:59N 37°57' E 023°37'0 0.0
2018-Jun-20 02:29N 37°57' E 023°37'0 0.0
2018-Jun-20 01:59N 37°57' E 023°37'0 0.0
2018-Jun-20 01:29N 37°57' E 023°37'0 0.0
2018-Jun-20 00:59N 37°57' E 023°37'0 0.0
2018-Jun-20 00:29N 37°57' E 023°37'0 0.0
2018-Jun-19 23:59N 37°57' E 023°37'0 0.0
2018-Jun-19 23:29N 37°57' E 023°37'0 0.0
2018-Jun-19 22:59N 37°57' E 023°37'0 0.0
2018-Jun-19 22:29N 37°57' E 023°37'0 0.0
2018-Jun-19 21:59N 37°57' E 023°37'0 0.0
2018-Jun-19 21:29N 37°57' E 023°37'0 0.0
2018-Jun-19 20:59N 37°57' E 023°37'0 0.0
2018-Jun-19 20:29N 37°57' E 023°37'0 0.0
2018-Jun-19 19:59N 37°57' E 023°37'0 0.0
2018-Jun-19 19:29N 37°57' E 023°37'0 0.0
2018-Jun-19 18:59N 37°57' E 023°37'0 0.0
2018-Jun-19 18:29N 37°57' E 023°37'0 0.0
2018-Jun-19 17:59N 37°57' E 023°37'0 0.0
2018-Jun-19 17:29N 37°57' E 023°37'0 0.0
2018-Jun-19 16:59N 37°57' E 023°37'0 0.0
2018-Jun-19 16:29N 37°57' E 023°37'0 0.0
2018-Jun-19 15:59N 37°57' E 023°37'0 0.0
2018-Jun-19 15:29N 37°57' E 023°37'0 0.0
2018-Jun-19 14:59N 37°57' E 023°37'0 0.0
2018-Jun-19 14:29N 37°57' E 023°37'0 0.0
2018-Jun-19 13:59N 37°57' E 023°37'0 0.0
2018-Jun-19 13:29N 37°57' E 023°37'0 0.0
2018-Jun-19 12:58N 37°57' E 023°37'0 0.0
2018-Jun-19 12:28N 37°57' E 023°37'0 0.0
2018-Jun-19 11:58N 37°57' E 023°37'0 0.0
2018-Jun-19 11:28N 37°57' E 023°37'0 0.0
2018-Jun-19 10:58N 37°57' E 023°37'0 0.0
2018-Jun-19 10:28N 37°57' E 023°37'0 0.0
2018-Jun-19 09:58N 37°57' E 023°37'0 0.0
2018-Jun-19 09:28N 37°57' E 023°37'0 0.0
2018-Jun-19 08:58N 37°57' E 023°37'0 0.0
2018-Jun-19 08:25N 37°57' E 023°37'0 0.0
2018-Jun-19 07:58N 37°57' E 023°37'0 0.0
2018-Jun-19 07:28N 37°57' E 023°37'0 0.0
2018-Jun-19 06:58N 37°57' E 023°37'0 0.0
2018-Jun-19 06:28N 37°57' E 023°37'0 0.0
2018-Jun-19 05:58N 37°57' E 023°37'0 0.0
2018-Jun-19 05:30N 37°57' E 023°37'0 0.5
2018-Jun-19 05:00N 37°57' E 023°37'2 4.0
2018-Jun-19 04:31N 37°55' E 023°36'0 0.7
2018-Jun-19 04:00N 37°54' E 023°36'1 1.5
2018-Jun-19 03:30N 37°54' E 023°37'3 6.1
2018-Jun-19 03:01N 37°51' E 023°39'3 5.9
2018-Jun-19 02:30N 37°48' E 023°41'3 5.7
2018-Jun-19 02:01N 37°46' E 023°42'3 6.5
2018-Jun-19 01:31N 37°43' E 023°44'4 7.4
2018-Jun-19 01:00N 37°40' E 023°47'  
2018-Jun-16 06:08N 37°38' E 023°48'211.1
2018-Jun-16 05:59N 37°38' E 023°46'510.5
2018-Jun-16 05:30N 37°42' E 023°41'611.4
2018-Jun-16 05:00N 37°47' E 023°38'510.9
2018-Jun-16 04:30N 37°52' E 023°37'5 9.0
2018-Jun-16 04:00N 37°56' E 023°37'0 0.7
2018-Jun-16 03:30N 37°57' E 023°37'0 0.0
2018-Jun-16 03:00N 37°57' E 023°37'0 0.0
2018-Jun-16 02:30N 37°57' E 023°37'0 0.0
2018-Jun-16 02:00N 37°57' E 023°37'0 0.0
2018-Jun-16 01:30N 37°57' E 023°37'0 0.0
2018-Jun-16 01:00N 37°57' E 023°37'0 0.0
2018-Jun-16 00:30N 37°57' E 023°37'0 0.0
2018-Jun-16 00:00N 37°57' E 023°37'0 0.0
2018-Jun-15 23:30N 37°57' E 023°37'0 0.0
2018-Jun-15 23:00N 37°57' E 023°37'0 0.0
2018-Jun-15 22:30N 37°57' E 023°37'0 0.0
2018-Jun-15 21:59N 37°57' E 023°37'0 0.0
2018-Jun-15 21:29N 37°57' E 023°37'0 0.0
2018-Jun-15 20:59N 37°57' E 023°37'0 0.0
2018-Jun-15 20:29N 37°57' E 023°37'0 0.0
2018-Jun-15 19:59N 37°57' E 023°37'0 0.0
2018-Jun-15 19:29N 37°57' E 023°37'0 0.0
2018-Jun-15 18:59N 37°57' E 023°37'0 0.0
2018-Jun-15 18:29N 37°57' E 023°37'0 0.0
2018-Jun-15 17:59N 37°57' E 023°37'0 0.0
2018-Jun-15 17:29N 37°57' E 023°37'0 0.0
2018-Jun-15 16:59N 37°57' E 023°37'0 0.0
2018-Jun-15 16:29N 37°57' E 023°37'0 0.0
2018-Jun-15 15:59N 37°57' E 023°37'0 0.0
2018-Jun-15 15:29N 37°57' E 023°37'0 0.0
2018-Jun-15 14:59N 37°57' E 023°37'0 0.0
2018-Jun-15 14:29N 37°57' E 023°37'0 0.0
2018-Jun-15 13:59N 37°57' E 023°37'0 0.0
2018-Jun-15 13:29N 37°57' E 023°37'0 0.0
2018-Jun-15 12:59N 37°57' E 023°37'0 0.0
2018-Jun-15 12:29N 37°57' E 023°37'0 0.0
2018-Jun-15 11:59N 37°57' E 023°37'0 0.0
2018-Jun-15 11:29N 37°57' E 023°37'0 0.0
2018-Jun-15 10:59N 37°57' E 023°37'0 0.0
2018-Jun-15 10:29N 37°57' E 023°37'0 0.0
2018-Jun-15 09:59N 37°57' E 023°37'0 0.0
2018-Jun-15 09:29N 37°57' E 023°37'0 0.0
2018-Jun-15 08:59N 37°57' E 023°37'0 0.0
2018-Jun-15 08:29N 37°57' E 023°37'0 0.0
2018-Jun-15 07:59N 37°57' E 023°37'0 0.0
2018-Jun-15 07:29N 37°57' E 023°37'0 0.0
2018-Jun-15 06:59N 37°57' E 023°37'0 0.0
2018-Jun-15 06:29N 37°57' E 023°37'0 0.0
2018-Jun-15 05:59N 37°57' E 023°37'0 0.0
2018-Jun-15 05:29N 37°57' E 023°37'0 0.0
2018-Jun-15 04:59N 37°57' E 023°37'0 0.0
2018-Jun-15 04:29N 37°57' E 023°37'0 0.0
2018-Jun-15 03:59N 37°57' E 023°37'0 0.0
2018-Jun-15 03:29N 37°57' E 023°37'0 0.0
2018-Jun-15 02:59N 37°57' E 023°37'0 0.0
2018-Jun-15 02:29N 37°57' E 023°37'0 0.0
2018-Jun-15 01:59N 37°57' E 023°37'0 0.0
2018-Jun-15 01:29N 37°57' E 023°37'0 0.0
2018-Jun-15 00:59N 37°57' E 023°37'0 0.0
2018-Jun-15 00:29N 37°57' E 023°37'0 0.0
2018-Jun-14 23:59N 37°57' E 023°37'0 0.0
2018-Jun-14 23:29N 37°57' E 023°37'0 0.0
2018-Jun-14 22:59N 37°57' E 023°37'0 0.0
2018-Jun-14 22:29N 37°57' E 023°37'0 0.0
2018-Jun-14 21:59N 37°57' E 023°37'  

Dump ship's entire track history